Time,TemperatureF,DewpointF,PressureIn,WindDirection,WindDirectionDegrees,WindSpeedMPH,WindSpeedGustMPH,Humidity,HourlyPrecipIn,Conditions,Clouds,dailyrainin,SoftwareType,DateUTC
2013-01-10 00:06:00,48.0,47.0,30.55,NNW,339,0.0,0.0,97,0.00,,,0.00,weatherlink.com 1.10,2013-01-10 05:06:00,
2013-01-10 00:21:00,47.6,47.0,30.55,NNW,338,0.0,0.0,97,0.00,,,0.00,weatherlink.com 1.10,2013-01-10 05:21:00,
2013-01-10 00:46:00,46.6,46.0,30.55,NNW,339,0.0,0.0,97,0.00,,,0.00,weatherlink.com 1.10,2013-01-10 05:46:00,
2013-01-10 00:51:00,46.4,46.0,30.55,NNW,339,0.0,0.0,97,0.00,,,0.00,weatherlink.com 1.10,2013-01-10 05:51:00,
2013-01-10 01:06:00,46.3,46.0,30.54,NNW,339,0.0,1.0,98,0.00,,,0.00,weatherlink.com 1.10,2013-01-10 06:06:00,
2013-01-10 01:22:00,45.6,45.0,30.55,NNW,339,0.0,0.0,98,0.00,,,0.00,weatherlink.com 1.10,2013-01-10 06:22:00,
2013-01-10 01:36:00,45.0,44.0,30.55,NNW,339,0.0,0.0,97,0.00,,,0.00,weatherlink.com 1.10,2013-01-10 06:36:00,
2013-01-10 01:51:00,44.8,44.0,30.55,NW,321,0.0,1.0,98,0.00,,,0.00,weatherlink.com 1.10,2013-01-10 06:51:00,
2013-01-10 02:06:00,45.5,45.0,30.55,NW,322,0.0,0.0,98,0.00,,,0.00,weatherlink.com 1.10,2013-01-10 07:06:00,
2013-01-10 02:21:00,45.1,45.0,30.55,NW,322,0.0,0.0,98,0.00,,,0.00,weatherlink.com 1.10,2013-01-10 07:21:00,
2013-01-10 02:36:00,44.7,44.0,30.55,NW,322,0.0,0.0,98,0.00,,,0.00,weatherlink.com 1.10,2013-01-10 07:36:00,
2013-01-10 02:51:00,44.5,44.0,30.55,NW,322,0.0,0.0,98,0.00,,,0.00,weatherlink.com 1.10,2013-01-10 07:51:00,
2013-01-10 03:06:00,44.5,44.0,30.56,NW,322,0.0,0.0,98,0.00,,,0.00,weatherlink.com 1.10,2013-01-10 08:06:00,
2013-01-10 03:21:00,44.5,44.0,30.55,NW,321,0.0,0.0,98,0.00,,,0.00,weatherlink.com 1.10,2013-01-10 08:21:00,
2013-01-10 03:36:00,44.7,44.0,30.54,NW,321,0.0,0.0,98,0.00,,,0.00,weatherlink.com 1.10,2013-01-10 08:36:00,
2013-01-10 03:51:00,44.6,44.0,30.55,NW,322,0.0,0.0,98,0.00,,,0.00,weatherlink.com 1.10,2013-01-10 08:51:00,
2013-01-10 04:06:00,44.5,44.0,30.55,NW,321,0.0,0.0,98,0.00,,,0.00,weatherlink.com 1.10,2013-01-10 09:06:00,
2013-01-10 04:21:00,44.6,44.0,30.54,NW,321,0.0,0.0,98,0.00,,,0.00,weatherlink.com 1.10,2013-01-10 09:21:00,
2013-01-10 04:36:00,44.7,44.0,30.55,NW,321,0.0,0.0,98,0.00,,,0.00,weatherlink.com 1.10,2013-01-10 09:36:00,
2013-01-10 04:51:00,44.7,44.0,30.54,NW,321,0.0,0.0,98,0.00,,,0.00,weatherlink.com 1.10,2013-01-10 09:51:00,
2013-01-10 05:08:00,44.6,44.0,30.53,NW,322,0.0,0.0,98,0.00,,,0.00,weatherlink.com 1.10,2013-01-10 10:08:00,
2013-01-10 05:21:00,44.5,44.0,30.53,NW,321,0.0,0.0,98,0.00,,,0.00,weatherlink.com 1.10,2013-01-10 10:21:00,
2013-01-10 05:36:00,44.4,44.0,30.53,NW,321,0.0,0.0,98,0.00,,,0.00,weatherlink.com 1.10,2013-01-10 10:36:00,
2013-01-10 05:51:00,44.3,44.0,30.54,NW,321,0.0,0.0,98,0.00,,,0.00,weatherlink.com 1.10,2013-01-10 10:51:00,
2013-01-10 06:06:00,44.1,44.0,30.54,NW,321,0.0,0.0,98,0.00,,,0.00,weatherlink.com 1.10,2013-01-10 11:06:00,
2013-01-10 06:21:00,43.7,43.0,30.54,NW,322,0.0,0.0,98,0.00,,,0.00,weatherlink.com 1.10,2013-01-10 11:21:00,
2013-01-10 06:36:00,43.4,43.0,30.54,NW,322,0.0,0.0,98,0.00,,,0.00,weatherlink.com 1.10,2013-01-10 11:36:00,
2013-01-10 06:51:00,43.2,43.0,30.54,NW,321,0.0,0.0,98,0.00,,,0.00,weatherlink.com 1.10,2013-01-10 11:51:00,
2013-01-10 07:08:00,42.9,42.0,30.55,NW,322,0.0,0.0,98,0.00,,,0.00,weatherlink.com 1.10,2013-01-10 12:08:00,
2013-01-10 07:21:00,42.8,42.0,30.55,NW,322,0.0,0.0,98,0.00,,,0.00,weatherlink.com 1.10,2013-01-10 12:21:00,
2013-01-10 07:36:00,43.0,43.0,30.55,NW,321,0.0,0.0,99,0.00,,,0.00,weatherlink.com 1.10,2013-01-10 12:36:00,
2013-01-10 07:51:00,43.0,43.0,30.55,NW,322,0.0,0.0,99,0.00,,,0.00,weatherlink.com 1.10,2013-01-10 12:51:00,
2013-01-10 08:07:00,42.9,43.0,30.56,NW,321,0.0,0.0,99,0.00,,,0.00,weatherlink.com 1.10,2013-01-10 13:07:00,
2013-01-10 08:22:00,42.9,43.0,30.57,NW,321,0.0,0.0,99,0.00,,,0.00,weatherlink.com 1.10,2013-01-10 13:22:00,
2013-01-10 08:37:00,43.3,43.0,30.58,NW,321,0.0,0.0,99,0.00,,,0.00,weatherlink.com 1.10,2013-01-10 13:37:00,
2013-01-10 08:52:00,43.8,44.0,30.58,NW,321,0.0,0.0,99,0.00,,,0.00,weatherlink.com 1.10,2013-01-10 13:52:00,
2013-01-10 09:07:00,44.3,44.0,30.58,NW,322,0.0,0.0,99,0.00,,,0.00,weatherlink.com 1.10,2013-01-10 14:07:00,
2013-01-10 09:22:00,44.9,45.0,30.58,NW,321,0.0,1.0,99,0.00,,,0.00,weatherlink.com 1.10,2013-01-10 14:22:00,
2013-01-10 09:37:00,45.5,45.0,30.58,NW,321,0.0,0.0,99,0.00,,,0.00,weatherlink.com 1.10,2013-01-10 14:37:00,
2013-01-10 09:53:00,46.8,47.0,30.58,NW,322,0.0,1.0,99,0.00,,,0.00,weatherlink.com 1.10,2013-01-10 14:53:00,
2013-01-10 10:07:00,47.6,47.0,30.59,NW,322,0.0,1.0,99,0.00,,,0.00,weatherlink.com 1.10,2013-01-10 15:07:00,
2013-01-10 10:22:00,47.7,48.0,30.58,ENE,60,0.0,1.0,99,0.00,,,0.00,weatherlink.com 1.10,2013-01-10 15:22:00,
2013-01-10 10:37:00,48.7,49.0,30.59,ESE,120,0.0,1.0,99,0.00,,,0.00,weatherlink.com 1.10,2013-01-10 15:37:00,
2013-01-10 11:08:00,52.3,50.0,30.58,NE,44,0.0,1.0,93,0.00,,,0.00,weatherlink.com 1.10,2013-01-10 16:08:00,
2013-01-10 11:22:00,53.1,51.0,30.57,ESE,105,0.0,1.0,91,0.00,,,0.00,weatherlink.com 1.10,2013-01-10 16:22:00,
2013-01-10 11:37:00,53.9,51.0,30.57,WNW,285,0.0,1.0,90,0.00,,,0.00,weatherlink.com 1.10,2013-01-10 16:37:00,
2013-01-10 11:52:00,55.0,52.0,30.56,West,260,0.0,1.0,89,0.00,,,0.00,weatherlink.com 1.10,2013-01-10 16:52:00,
2013-01-10 12:07:00,56.3,53.0,30.55,NNE,13,0.0,1.0,89,0.00,,,0.00,weatherlink.com 1.10,2013-01-10 17:07:00,
2013-01-10 12:22:00,58.8,54.0,30.54,ENE,76,0.0,1.0,84,0.00,,,0.00,weatherlink.com 1.10,2013-01-10 17:22:00,
2013-01-10 12:37:00,60.8,55.0,30.53,North,357,0.0,2.0,80,0.00,,,0.00,weatherlink.com 1.10,2013-01-10 17:37:00,
2013-01-10 12:52:00,61.0,54.0,30.52,ESE,114,0.0,2.0,77,0.00,,,0.00,weatherlink.com 1.10,2013-01-10 17:52:00,
2013-01-10 13:07:00,61.9,55.0,30.51,SE,127,0.0,1.0,77,0.00,,,0.00,weatherlink.com 1.10,2013-01-10 18:07:00,
2013-01-10 13:22:00,62.7,54.0,30.50,West,267,1.0,1.0,73,0.00,,,0.00,weatherlink.com 1.10,2013-01-10 18:22:00,
2013-01-10 13:37:00,62.9,53.0,30.50,WSW,242,0.0,2.0,70,0.00,,,0.00,weatherlink.com 1.10,2013-01-10 18:37:00,
2013-01-10 13:52:00,63.6,53.0,30.49,NNW,335,0.0,1.0,69,0.00,,,0.00,weatherlink.com 1.10,2013-01-10 18:52:00,
2013-01-10 14:08:00,63.9,52.0,30.48,NW,304,0.0,2.0,66,0.00,,,0.00,weatherlink.com 1.10,2013-01-10 19:08:00,
2013-01-10 14:23:00,63.6,52.0,30.48,East,101,0.0,1.0,66,0.00,,,0.00,weatherlink.com 1.10,2013-01-10 19:23:00,
2013-01-10 14:38:00,63.9,52.0,30.48,NNE,30,0.0,0.0,65,0.00,,,0.00,weatherlink.com 1.10,2013-01-10 19:38:00,
2013-01-10 14:53:00,64.3,52.0,30.48,NW,312,1.0,3.0,65,0.00,,,0.00,weatherlink.com 1.10,2013-01-10 19:53:00,
2013-01-10 15:08:00,64.1,52.0,30.48,West,276,1.0,3.0,65,0.00,,,0.00,weatherlink.com 1.10,2013-01-10 20:08:00,
2013-01-10 15:23:00,64.3,52.0,30.48,NW,321,2.0,3.0,64,0.00,,,0.00,weatherlink.com 1.10,2013-01-10 20:23:00,
2013-01-10 15:53:00,64.2,52.0,30.48,WSW,257,2.0,4.0,65,0.00,,,0.00,weatherlink.com 1.10,2013-01-10 20:53:00,
2013-01-10 16:23:00,62.7,52.0,30.49,NW,305,0.0,1.0,67,0.00,,,0.00,weatherlink.com 1.10,2013-01-10 21:23:00,
2013-01-10 16:38:00,62.4,52.0,30.49,NW,304,0.0,0.0,68,0.00,,,0.00,weatherlink.com 1.10,2013-01-10 21:38:00,
2013-01-10 16:53:00,61.8,51.0,30.50,East,98,0.0,1.0,69,0.00,,,0.00,weatherlink.com 1.10,2013-01-10 21:53:00,
2013-01-10 17:08:00,61.5,51.0,30.50,WSW,252,0.0,2.0,69,0.00,,,0.00,weatherlink.com 1.10,2013-01-10 22:08:00,
2013-01-10 17:23:00,61.0,51.0,30.49,East,90,1.0,3.0,70,0.00,,,0.00,weatherlink.com 1.10,2013-01-10 22:23:00,
2013-01-10 17:38:00,60.4,51.0,30.49,SE,145,0.0,2.0,70,0.00,,,0.00,weatherlink.com 1.10,2013-01-10 22:38:00,
2013-01-10 17:53:00,59.9,51.0,30.49,East,98,0.0,1.0,72,0.00,,,0.00,weatherlink.com 1.10,2013-01-10 22:53:00,
2013-01-10 18:08:00,59.1,51.0,30.49,ESE,115,0.0,1.0,74,0.00,,,0.00,weatherlink.com 1.10,2013-01-10 23:08:00,
2013-01-10 18:23:00,58.3,50.0,30.49,ESE,115,0.0,0.0,75,0.00,,,0.00,weatherlink.com 1.10,2013-01-10 23:23:00,
2013-01-10 18:38:00,58.5,51.0,30.49,West,266,0.0,3.0,75,0.00,,,0.00,weatherlink.com 1.10,2013-01-10 23:38:00,
2013-01-10 18:53:00,57.0,50.0,30.49,West,281,0.0,1.0,78,0.00,,,0.00,weatherlink.com 1.10,2013-01-10 23:53:00,
2013-01-10 19:08:00,55.9,50.0,30.49,West,280,0.0,0.0,80,0.00,,,0.00,weatherlink.com 1.10,2013-01-11 00:08:00,
2013-01-10 19:23:00,54.6,49.0,30.49,West,271,0.0,1.0,82,0.00,,,0.00,weatherlink.com 1.10,2013-01-11 00:23:00,
2013-01-10 19:38:00,53.6,49.0,30.49,NNE,32,0.0,1.0,85,0.00,,,0.00,weatherlink.com 1.10,2013-01-11 00:38:00,
2013-01-10 19:53:00,54.4,50.0,30.48,SE,131,0.0,0.0,84,0.00,,,0.00,weatherlink.com 1.10,2013-01-11 00:53:00,
2013-01-10 20:08:00,54.2,50.0,30.48,SE,135,0.0,0.0,85,0.00,,,0.00,weatherlink.com 1.10,2013-01-11 01:08:00,
2013-01-10 20:23:00,54.2,50.0,30.47,ESE,108,0.0,1.0,86,0.00,,,0.00,weatherlink.com 1.10,2013-01-11 01:23:00,
2013-01-10 20:53:00,53.8,50.0,30.48,ESE,108,0.0,0.0,86,0.00,,,0.00,weatherlink.com 1.10,2013-01-11 01:53:00,
2013-01-10 21:08:00,53.6,50.0,30.47,ESE,107,0.0,0.0,87,0.00,,,0.00,weatherlink.com 1.10,2013-01-11 02:08:00,
2013-01-10 21:23:00,53.5,50.0,30.47,ESE,107,0.0,1.0,87,0.00,,,0.00,weatherlink.com 1.10,2013-01-11 02:23:00,
2013-01-10 21:38:00,53.4,50.0,30.47,ESE,107,0.0,0.0,88,0.00,,,0.00,weatherlink.com 1.10,2013-01-11 02:38:00,
2013-01-10 21:53:00,53.4,50.0,30.46,ENE,71,0.0,1.0,87,0.00,,,0.00,weatherlink.com 1.10,2013-01-11 02:53:00,
2013-01-10 22:08:00,54.2,50.0,30.46,South,174,0.0,2.0,85,0.00,,,0.00,weatherlink.com 1.10,2013-01-11 03:08:00,
2013-01-10 22:23:00,54.6,50.0,30.45,East,96,0.0,3.0,85,0.00,,,0.00,weatherlink.com 1.10,2013-01-11 03:23:00,
2013-01-10 22:38:00,54.3,51.0,30.45,WNW,294,0.0,3.0,88,0.00,,,0.00,weatherlink.com 1.10,2013-01-11 03:38:00,
2013-01-10 22:53:00,53.7,51.0,30.43,ENE,63,0.0,1.0,90,0.00,,,0.00,weatherlink.com 1.10,2013-01-11 03:53:00,
2013-01-10 23:08:00,53.3,51.0,30.43,ENE,63,0.0,1.0,92,0.00,,,0.00,weatherlink.com 1.10,2013-01-11 04:08:00,
2013-01-10 23:23:00,52.9,51.0,30.43,NNE,32,0.0,1.0,94,0.01,,,0.01,weatherlink.com 1.10,2013-01-11 04:23:00,
2013-01-10 23:38:00,52.6,51.0,30.43,WNW,297,0.0,1.0,95,0.02,,,0.02,weatherlink.com 1.10,2013-01-11 04:38:00,
2013-01-10 23:53:00,52.4,51.0,30.42,WNW,296,0.0,0.0,96,0.02,,,0.02,weatherlink.com 1.10,2013-01-11 04:53:00,